Time;durP1;ratioP1;P1;durP2;ratioP2;P2;SDS_P1;SDS_P2;PMS_P1;PMS_P2;Temp;Humidity;BMP_temperature;BMP_pressure;BME280_temperature;BME280_humidity;BME280_pressure;Samples;Min_cycle;Max_cycle;Signal;HPM_P1;HPM_P2
2022/05/07 00:01:32;;;;;;;;;4.75;4.75;;;;;;;;5014487;28;10042;-74
2022/05/07 00:03:59;;;;;;;;;4.50;3.75;;;;;;;;5015452;28;9991;-74
2022/05/07 00:06:28;;;;;;;;;4.25;4.25;;;;;;;;5014593;28;9995;-74
2022/05/07 00:08:55;;;;;;;;;7.50;5.25;;;;;;;;5002627;28;11052;-75
2022/05/07 00:11:22;;;;;;;;;4.00;4.00;;;;;;;;5004692;28;10121;-74
2022/05/07 00:13:51;;;;;;;;;8.50;6.75;;;;;;;;5013395;28;9991;-75
2022/05/07 00:19:03;;;;;;;;;6.25;4.50;;;;;;;;5018462;28;9930;-77
2022/05/07 00:21:32;;;;;;;;;5.50;3.75;;;;;;;;5021095;28;10034;-75
2022/05/07 00:23:59;;;;;;;;;3.00;1.75;;;;;;;;5019722;28;9978;-75
2022/05/07 00:26:27;;;;;;;;;3.25;3.25;;;;;;;;5001772;28;9966;-75
2022/05/07 00:28:54;;;;;;;;;4.00;4.00;;;;;;;;5017092;28;10120;-75
2022/05/07 00:31:21;;;;;;;;;3.00;3.00;;;;;;;;4997217;28;10015;-76
2022/05/07 00:33:49;;;;;;;;;5.75;4.00;;;;;;;;5014197;28;10093;-74
2022/05/07 00:36:16;;;;;;;;;3.00;3.00;;;;;;;;5020490;28;9961;-76
2022/05/07 00:38:45;;;;;;;;;3.50;3.50;;;;;;;;5015930;28;9872;-75
2022/05/07 00:41:13;;;;;;;;;4.00;4.00;;;;;;;;4998639;28;10274;-74
2022/05/07 00:43:41;;;;;;;;;3.75;3.75;;;;;;;;5012815;28;10083;-74
2022/05/07 00:46:09;;;;;;;;;5.25;3.00;;;;;;;;4997785;28;9949;-75
2022/05/07 00:48:36;;;;;;;;;7.50;4.25;;;;;;;;5017303;28;10050;-75
2022/05/07 00:53:50;;;;;;;;;3.00;3.00;;;;;;;;5013725;28;10009;-74
2022/05/07 00:56:18;;;;;;;;;4.00;4.00;;;;;;;;5014322;28;10955;-75
2022/05/07 00:58:45;;;;;;;;;4.00;3.00;;;;;;;;5010975;28;10083;-74
2022/05/07 01:01:12;;;;;;;;;2.00;2.00;;;;;;;;5018895;28;9894;-73
2022/05/07 01:03:39;;;;;;;;;3.75;3.75;;;;;;;;5015067;28;9932;-74
2022/05/07 01:06:07;;;;;;;;;4.75;4.75;;;;;;;;5020776;28;10088;-76
2022/05/07 01:08:34;;;;;;;;;5.25;5.25;;;;;;;;5018163;28;11977;-75
2022/05/07 01:11:03;;;;;;;;;1.75;1.75;;;;;;;;5012161;28;10093;-74
2022/05/07 01:13:31;;;;;;;;;4.00;3.00;;;;;;;;5007381;28;10001;-74
2022/05/07 01:15:58;;;;;;;;;2.75;2.75;;;;;;;;5020794;28;9968;-74
2022/05/07 01:18:26;;;;;;;;;4.75;4.00;;;;;;;;5013732;28;10069;-74
2022/05/07 01:20:54;;;;;;;;;3.25;3.25;;;;;;;;5021065;28;10138;-75
2022/05/07 01:23:23;;;;;;;;;3.00;3.00;;;;;;;;5022727;28;9894;-74
2022/05/07 01:25:50;;;;;;;;;2.75;2.75;;;;;;;;5018115;28;9983;-73
2022/05/07 01:28:18;;;;;;;;;3.00;3.00;;;;;;;;5017891;28;9968;-75
2022/05/07 01:30:47;;;;;;;;;4.25;4.00;;;;;;;;5020028;28;9878;-73
2022/05/07 01:33:14;;;;;;;;;3.00;3.00;;;;;;;;5017876;28;9988;-73
2022/05/07 01:35:41;;;;;;;;;4.50;3.50;;;;;;;;5017908;28;9896;-73
2022/05/07 01:38:08;;;;;;;;;4.00;4.00;;;;;;;;5017896;28;10053;-74
2022/05/07 01:40:37;;;;;;;;;6.25;4.75;;;;;;;;5014517;28;9971;-73
2022/05/07 01:43:04;;;;;;;;;2.25;2.25;;;;;;;;5015586;28;10883;-73
2022/05/07 01:45:31;;;;;;;;;3.50;3.50;;;;;;;;5021666;28;10087;-74
2022/05/07 01:48:09;;;;;;;;;5.75;3.50;;;;;;;;5009596;28;10206;-74
2022/05/07 01:50:38;;;;;;;;;1.75;1.75;;;;;;;;5016358;28;10249;-75
2022/05/07 01:53:06;;;;;;;;;4.25;3.00;;;;;;;;5009315;28;10040;-74
2022/05/07 01:55:34;;;;;;;;;6.75;6.00;;;;;;;;5015848;28;10211;-72
2022/05/07 01:58:03;;;;;;;;;11.25;6.00;;;;;;;;5013659;28;10297;-73
2022/05/07 02:00:31;;;;;;;;;3.00;3.00;;;;;;;;5020300;28;10333;-74
2022/05/07 02:02:59;;;;;;;;;3.50;3.50;;;;;;;;4991247;28;10431;-73
2022/05/07 02:05:27;;;;;;;;;3.75;3.00;;;;;;;;5020344;28;10346;-76
2022/05/07 02:07:55;;;;;;;;;6.75;3.00;;;;;;;;5030309;28;10262;-75
2022/05/07 02:10:23;;;;;;;;;3.00;3.00;;;;;;;;5020418;28;10350;-75
2022/05/07 02:12:51;;;;;;;;;4.00;4.00;;;;;;;;5016440;28;10267;-74
2022/05/07 02:15:20;;;;;;;;;6.25;6.25;;;;;;;;5022782;28;10339;-75
2022/05/07 02:17:47;;;;;;;;;5.00;4.50;;;;;;;;5023577;28;11220;-77
2022/05/07 02:20:14;;;;;;;;;4.50;4.50;;;;;;;;5018641;28;10345;-75
2022/05/07 02:22:41;;;;;;;;;3.00;3.00;;;;;;;;5004591;28;10341;-77
2022/05/07 02:25:10;;;;;;;;;8.00;6.25;;;;;;;;5017150;28;11013;-74
2022/05/07 02:27:37;;;;;;;;;2.00;2.00;;;;;;;;5010261;28;10513;-77
2022/05/07 02:30:05;;;;;;;;;8.00;6.25;;;;;;;;5019442;28;10233;-74
2022/05/07 02:32:34;;;;;;;;;5.50;5.50;;;;;;;;5023217;28;10454;-74
2022/05/07 02:35:01;;;;;;;;;9.50;6.00;;;;;;;;5022495;28;10406;-74
2022/05/07 02:37:28;;;;;;;;;4.00;4.00;;;;;;;;5029568;28;10329;-73
2022/05/07 02:39:55;;;;;;;;;3.00;3.00;;;;;;;;5021093;28;11194;-74
2022/05/07 02:42:36;;;;;;;;;2.50;2.50;;;;;;;;5022130;28;10368;-74
2022/05/07 02:45:04;;;;;;;;;7.00;5.00;;;;;;;;5021449;28;10338;-73
2022/05/07 02:47:33;;;;;;;;;6.00;5.00;;;;;;;;5021485;28;10531;-74
2022/05/07 02:50:00;;;;;;;;;6.50;6.50;;;;;;;;5023377;28;10488;-74
2022/05/07 02:52:27;;;;;;;;;5.00;5.00;;;;;;;;5013807;28;11227;-74
2022/05/07 02:54:54;;;;;;;;;7.50;6.00;;;;;;;;5016371;28;10434;-75
2022/05/07 02:57:22;;;;;;;;;3.75;3.75;;;;;;;;5018551;28;10692;-74
2022/05/07 02:59:49;;;;;;;;;6.50;6.50;;;;;;;;5023550;28;10431;-75
2022/05/07 03:02:16;;;;;;;;;7.75;7.00;;;;;;;;5019502;28;10510;-74
2022/05/07 03:04:47;;;;;;;;;8.75;6.00;;;;;;;;5023728;28;10747;-74
2022/05/07 03:07:14;;;;;;;;;7.25;6.00;;;;;;;;5011927;28;10662;-74
2022/05/07 03:09:42;;;;;;;;;7.00;6.75;;;;;;;;5016689;28;10642;-75
2022/05/07 03:12:10;;;;;;;;;6.00;6.00;;;;;;;;5025403;28;11528;-75
2022/05/07 03:14:37;;;;;;;;;6.00;6.00;;;;;;;;5020032;28;10783;-75
2022/05/07 03:17:05;;;;;;;;;7.00;6.00;;;;;;;;5011011;28;10796;-74
2022/05/07 03:19:32;;;;;;;;;5.00;5.00;;;;;;;;5021087;28;11409;-75
2022/05/07 03:22:01;;;;;;;;;4.00;4.00;;;;;;;;5023923;28;10903;-75
2022/05/07 03:24:29;;;;;;;;;6.50;6.50;;;;;;;;5023396;28;11513;-74
2022/05/07 03:26:57;;;;;;;;;7.00;7.00;;;;;;;;5023028;28;10832;-75
2022/05/07 03:29:24;;;;;;;;;10.00;6.00;;;;;;;;5023442;28;10855;-75
2022/05/07 03:31:52;;;;;;;;;6.25;6.25;;;;;;;;5010764;28;10742;-75
2022/05/07 03:34:19;;;;;;;;;4.50;4.50;;;;;;;;5022463;28;10893;-75
2022/05/07 03:36:46;;;;;;;;;5.00;5.00;;;;;;;;5022346;28;10491;-74
2022/05/07 03:39:15;;;;;;;;;5.00;5.00;;;;;;;;4975943;28;10638;-74
2022/05/07 03:41:43;;;;;;;;;6.75;6.75;;;;;;;;5023044;28;10604;-74
2022/05/07 03:44:10;;;;;;;;;9.25;7.75;;;;;;;;5008204;28;10711;-75
2022/05/07 03:46:37;;;;;;;;;12.00;6.00;;;;;;;;5010892;28;10749;-75
2022/05/07 03:49:04;;;;;;;;;6.25;6.25;;;;;;;;5018755;28;10708;-76
2022/05/07 03:53:29;;;;;;;;;8.25;8.25;;;;;;;;5005497;28;10571;-75
2022/05/07 03:54:19;;;;;;;;;6.00;6.00;;;;;;;;5007299;28;10584;-75
2022/05/07 03:56:47;;;;;;;;;8.00;6.75;;;;;;;;5012771;28;10709;-75
2022/05/07 03:59:14;;;;;;;;;12.50;7.00;;;;;;;;5015199;28;10637;-76
2022/05/07 04:01:41;;;;;;;;;7.50;7.25;;;;;;;;5013353;28;10519;-74
2022/05/07 04:04:08;;;;;;;;;9.25;8.75;;;;;;;;5015545;28;10627;-74
2022/05/07 04:06:35;;;;;;;;;8.75;8.75;;;;;;;;5019799;28;10530;-75
2022/05/07 04:09:03;;;;;;;;;10.25;8.25;;;;;;;;5012452;28;10701;-75
2022/05/07 04:11:31;;;;;;;;;6.25;6.25;;;;;;;;5018123;28;10439;-75
2022/05/07 04:13:58;;;;;;;;;6.00;6.00;;;;;;;;5018079;28;11374;-74
2022/05/07 04:16:26;;;;;;;;;7.75;6.75;;;;;;;;5021310;28;10671;-74
2022/05/07 04:18:53;;;;;;;;;5.75;5.75;;;;;;;;5017388;28;10635;-74
2022/05/07 04:21:20;;;;;;;;;9.00;7.75;;;;;;;;5015388;28;10641;-74
2022/05/07 04:23:47;;;;;;;;;6.25;5.50;;;;;;;;5018793;28;10614;-75
2022/05/07 04:26:14;;;;;;;;;7.00;7.00;;;;;;;;5018522;28;10393;-73
2022/05/07 04:28:43;;;;;;;;;6.00;6.00;;;;;;;;5000286;28;11347;-73
2022/05/07 04:31:10;;;;;;;;;5.00;5.00;;;;;;;;5021834;28;10449;-74
2022/05/07 04:33:37;;;;;;;;;7.00;7.00;;;;;;;;5021264;28;10408;-75
2022/05/07 04:36:05;;;;;;;;;9.00;8.00;;;;;;;;5014568;28;11229;-74
2022/05/07 04:38:32;;;;;;;;;6.75;6.75;;;;;;;;5015358;28;10325;-74
2022/05/07 04:40:59;;;;;;;;;8.00;6.25;;;;;;;;5011746;28;10392;-75
2022/05/07 04:43:27;;;;;;;;;12.25;9.25;;;;;;;;5015073;28;11093;-75
2022/05/07 04:45:55;;;;;;;;;9.00;7.00;;;;;;;;5017839;28;10256;-74
2022/05/07 04:48:23;;;;;;;;;11.00;11.00;;;;;;;;5022057;28;10185;-74
2022/05/07 04:50:50;;;;;;;;;5.00;5.00;;;;;;;;5014966;28;10362;-74
2022/05/07 04:53:17;;;;;;;;;8.25;8.00;;;;;;;;5001686;28;10054;-74
2022/05/07 04:55:45;;;;;;;;;8.00;8.00;;;;;;;;5016053;28;10343;-74
2022/05/07 04:58:12;;;;;;;;;8.00;6.75;;;;;;;;5000440;28;10338;-74
2022/05/07 05:00:39;;;;;;;;;9.25;9.25;;;;;;;;5015948;28;10200;-75
2022/05/07 05:03:08;;;;;;;;;7.25;7.25;;;;;;;;5020310;28;10326;-76
2022/05/07 05:05:38;;;;;;;;;7.75;7.75;;;;;;;;5016508;28;10983;-76
2022/05/07 05:08:05;;;;;;;;;12.25;8.75;;;;;;;;5014696;28;10170;-77
2022/05/07 05:10:33;;;;;;;;;8.50;8.00;;;;;;;;5020438;28;10096;-75
2022/05/07 05:13:00;;;;;;;;;7.00;7.00;;;;;;;;5012742;28;9996;-76
2022/05/07 05:15:28;;;;;;;;;12.00;9.75;;;;;;;;5017889;28;10060;-75
2022/05/07 05:17:55;;;;;;;;;7.25;7.25;;;;;;;;5013665;28;9948;-75
2022/05/07 05:20:24;;;;;;;;;13.25;8.00;;;;;;;;5020676;28;9982;-74
2022/05/07 05:22:51;;;;;;;;;7.25;7.25;;;;;;;;5021703;28;10047;-75
2022/05/07 05:25:20;;;;;;;;;8.75;8.75;;;;;;;;5015954;28;9967;-75
2022/05/07 05:27:47;;;;;;;;;11.50;11.50;;;;;;;;5014674;28;9943;-74
2022/05/07 05:30:15;;;;;;;;;7.75;7.75;;;;;;;;5015177;28;9939;-76
2022/05/07 05:32:42;;;;;;;;;9.50;9.50;;;;;;;;5020652;28;9981;-77
2022/05/07 05:35:10;;;;;;;;;8.75;8.50;;;;;;;;5025189;28;9853;-76
2022/05/07 05:37:39;;;;;;;;;11.25;11.25;;;;;;;;5020353;28;9807;-75
2022/05/07 05:40:07;;;;;;;;;11.00;9.00;;;;;;;;5021306;28;9874;-75
2022/05/07 05:42:34;;;;;;;;;10.50;10.50;;;;;;;;5020766;28;10905;-75
2022/05/07 05:45:02;;;;;;;;;10.75;10.00;;;;;;;;4988163;28;9888;-74
2022/05/07 05:47:29;;;;;;;;;15.25;11.50;;;;;;;;5004613;28;9809;-75
2022/05/07 05:49:57;;;;;;;;;11.25;10.50;;;;;;;;5006700;28;9835;-75
2022/05/07 05:52:24;;;;;;;;;7.25;7.25;;;;;;;;5023439;28;9747;-75
2022/05/07 05:54:52;;;;;;;;;12.00;9.50;;;;;;;;5005829;28;9840;-74
2022/05/07 05:57:20;;;;;;;;;15.75;13.50;;;;;;;;5018890;28;9908;-74
2022/05/07 05:59:47;;;;;;;;;12.50;12.50;;;;;;;;5023106;28;9632;-75
2022/05/07 06:02:17;;;;;;;;;12.75;12.75;;;;;;;;5022479;28;9609;-75
2022/05/07 06:04:45;;;;;;;;;14.50;11.25;;;;;;;;5020274;28;9736;-74
2022/05/07 06:07:12;;;;;;;;;11.50;11.00;;;;;;;;5014489;28;9829;-74
2022/05/07 06:09:39;;;;;;;;;14.75;11.00;;;;;;;;5026398;28;10479;-75
2022/05/07 06:12:09;;;;;;;;;8.50;8.50;;;;;;;;5022182;28;9724;-77
2022/05/07 06:14:37;;;;;;;;;12.00;10.00;;;;;;;;5025321;28;9736;-76
2022/05/07 06:17:04;;;;;;;;;10.00;10.00;;;;;;;;5023231;28;9803;-76
2022/05/07 06:19:31;;;;;;;;;14.00;12.00;;;;;;;;5022969;28;9798;-75
2022/05/07 06:21:59;;;;;;;;;13.00;13.00;;;;;;;;5022020;28;9636;-86
2022/05/07 06:27:32;;;;;;;;;11.50;11.50;;;;;;;;5020069;28;9756;-82
2022/05/07 06:30:00;;;;;;;;;14.50;13.00;;;;;;;;4999060;28;9891;-82
2022/05/07 06:32:32;;;;;;;;;14.00;13.00;;;;;;;;5024131;28;10949;-80
2022/05/07 06:35:00;;;;;;;;;19.00;15.00;;;;;;;;5022512;28;9961;-82
2022/05/07 06:37:27;;;;;;;;;14.50;12.00;;;;;;;;5022025;28;10136;-86
2022/05/07 06:39:56;;;;;;;;;18.25;14.00;;;;;;;;5004944;28;10210;-83
2022/05/07 06:42:25;;;;;;;;;12.00;12.00;;;;;;;;5022166;28;10233;-81
2022/05/07 06:44:52;;;;;;;;;15.00;15.00;;;;;;;;5020156;28;10300;-84
2022/05/07 06:47:20;;;;;;;;;19.00;19.00;;;;;;;;4989123;28;11004;-84
2022/05/07 06:49:47;;;;;;;;;14.25;13.75;;;;;;;;5021747;28;10275;-83
2022/05/07 06:52:15;;;;;;;;;14.25;11.75;;;;;;;;5003782;28;10044;-83
2022/05/07 06:54:42;;;;;;;;;14.00;14.00;;;;;;;;5021684;28;10235;-83
2022/05/07 06:57:09;;;;;;;;;17.25;17.25;;;;;;;;5021062;28;9826;-83
2022/05/07 06:59:38;;;;;;;;;18.00;17.50;;;;;;;;5020755;28;10000;-80
2022/05/07 07:02:06;;;;;;;;;13.50;13.50;;;;;;;;5020852;28;9751;-82
2022/05/07 07:04:33;;;;;;;;;23.50;17.25;;;;;;;;5021958;28;9937;-80
2022/05/07 07:07:00;;;;;;;;;14.50;13.75;;;;;;;;5020788;28;9904;-82
2022/05/07 07:09:28;;;;;;;;;18.25;15.25;;;;;;;;5013647;28;9798;-84
2022/05/07 07:11:55;;;;;;;;;18.00;16.75;;;;;;;;5018802;28;9586;-82
2022/05/07 07:14:23;;;;;;;;;18.25;16.75;;;;;;;;5000948;28;9671;-78
2022/05/07 07:16:51;;;;;;;;;25.00;21.00;;;;;;;;5003238;28;9761;-80
2022/05/07 07:19:18;;;;;;;;;21.25;20.25;;;;;;;;5015566;28;9912;-84
2022/05/07 07:21:49;;;;;;;;;21.00;18.00;;;;;;;;5021193;28;9503;-82
2022/05/07 07:24:18;;;;;;;;;19.33;17.00;;;;;;;;5011687;28;9395;-85
2022/05/07 07:26:45;;;;;;;;;16.33;15.67;;;;;;;;5010188;28;9596;-78
2022/05/07 07:29:13;;;;;;;;;17.33;17.33;;;;;;;;5017456;28;9381;-78
2022/05/07 07:31:40;;;;;;;;;21.00;17.67;;;;;;;;5015165;28;9280;-78
2022/05/07 07:34:09;;;;;;;;;15.33;14.67;;;;;;;;5000286;28;9225;-80
2022/05/07 07:36:36;;;;;;;;;15.67;13.00;;;;;;;;5018826;28;9045;-80
2022/05/07 07:39:07;;;;;;;;;20.00;20.00;;;;;;;;5020154;28;8975;-81
2022/05/07 07:41:34;;;;;;;;;19.67;19.67;;;;;;;;5018385;28;9022;-73
2022/05/07 07:44:02;;;;;;;;;19.00;17.33;;;;;;;;5020677;28;9107;-80
2022/05/07 07:49:15;;;;;;;;;15.00;15.00;;;;;;;;5015191;28;9017;-79
2022/05/07 07:51:42;;;;;;;;;14.67;14.67;;;;;;;;5019212;28;9062;-78
2022/05/07 07:54:10;;;;;;;;;18.00;15.00;;;;;;;;4997594;28;9153;-78
2022/05/07 07:56:37;;;;;;;;;15.00;11.00;;;;;;;;4999724;28;9184;-78
2022/05/07 07:59:05;;;;;;;;;14.75;13.00;;;;;;;;5018820;28;8949;-80
2022/05/07 08:01:33;;;;;;;;;17.50;15.00;;;;;;;;5016540;28;8899;-81
2022/05/07 08:04:00;;;;;;;;;16.75;16.75;;;;;;;;4998264;28;8895;-81
2022/05/07 08:06:30;;;;;;;;;15.25;15.25;;;;;;;;5017019;28;10096;-81
2022/05/07 08:11:46;;;;;;;;;12.75;12.75;;;;;;;;5018396;28;8849;-81
2022/05/07 08:14:14;;;;;;;;;26.00;23.67;;;;;;;;5021544;28;9467;-80
2022/05/07 08:16:42;;;;;;;;;17.00;15.50;;;;;;;;5020746;28;9023;-79
2022/05/07 08:19:09;;;;;;;;;16.50;16.50;;;;;;;;5014556;28;8884;-80
2022/05/07 08:21:39;;;;;;;;;15.50;13.00;;;;;;;;5018991;28;9007;-82
2022/05/07 08:24:07;;;;;;;;;15.50;15.00;;;;;;;;5015661;28;8888;-88
2022/05/07 08:26:34;;;;;;;;;22.75;21.50;;;;;;;;5022486;28;8864;-88
2022/05/07 08:29:01;;;;;;;;;14.75;14.75;;;;;;;;5018050;28;8877;-88
2022/05/07 08:31:28;;;;;;;;;16.50;15.25;;;;;;;;5022577;28;8793;-84
2022/05/07 08:33:56;;;;;;;;;19.33;14.00;;;;;;;;5021955;28;8947;-84
2022/05/07 08:36:23;;;;;;;;;15.25;15.00;;;;;;;;5020857;28;8900;-85
2022/05/07 08:38:52;;;;;;;;;19.50;17.75;;;;;;;;5018702;28;8856;-83
2022/05/07 08:41:19;;;;;;;;;14.75;14.75;;;;;;;;5021371;28;8877;-86
2022/05/07 08:43:47;;;;;;;;;17.25;15.50;;;;;;;;5001958;28;8871;-87
2022/05/07 08:46:16;;;;;;;;;15.25;13.25;;;;;;;;5016042;28;8868;-83
2022/05/07 08:48:46;;;;;;;;;21.50;19.50;;;;;;;;5021512;28;8961;-83
2022/05/07 08:51:15;;;;;;;;;16.75;13.75;;;;;;;;5018104;28;8849;-84
2022/05/07 08:53:43;;;;;;;;;17.75;16.00;;;;;;;;5018837;28;8901;-86
2022/05/07 08:56:12;;;;;;;;;19.00;18.25;;;;;;;;5020446;28;8957;-87
2022/05/07 08:58:40;;;;;;;;;19.50;16.25;;;;;;;;5020806;28;8896;-85
2022/05/07 09:01:07;;;;;;;;;21.50;20.00;;;;;;;;5018871;28;8821;-87
2022/05/07 09:03:43;;;;;;;;;18.00;16.00;;;;;;;;5021828;28;8957;-87
2022/05/07 09:06:18;;;;;;;;;19.25;18.00;;;;;;;;5025869;28;8891;-89
2022/05/07 09:08:46;;;;;;;;;19.25;19.25;;;;;;;;5006914;28;8848;-89
2022/05/07 09:11:16;;;;;;;;;15.75;14.25;;;;;;;;5025105;28;8868;-87
2022/05/07 09:13:45;;;;;;;;;16.00;15.00;;;;;;;;5026785;28;8880;-84
2022/05/07 09:16:12;;;;;;;;;16.75;16.50;;;;;;;;5025597;28;8857;-85
2022/05/07 09:18:46;;;;;;;;;19.50;18.25;;;;;;;;5023362;28;8919;-89
2022/05/07 09:21:26;;;;;;;;;16.00;16.00;;;;;;;;5005627;28;8888;-82
2022/05/07 09:24:05;;;;;;;;;18.50;17.50;;;;;;;;5024981;28;8983;-81
2022/05/07 09:26:36;;;;;;;;;17.00;16.50;;;;;;;;5022916;28;8868;-86
2022/05/07 09:29:07;;;;;;;;;17.25;17.00;;;;;;;;5021432;28;9437;-82
2022/05/07 09:31:35;;;;;;;;;18.00;18.00;;;;;;;;5022900;28;8952;-77
2022/05/07 09:36:56;;;;;;;;;18.25;17.25;;;;;;;;5022181;28;8885;-78
2022/05/07 09:39:24;;;;;;;;;13.75;13.75;;;;;;;;5014763;28;8864;-80
2022/05/07 09:41:58;;;;;;;;;17.25;16.25;;;;;;;;5005744;28;8970;-82
2022/05/07 09:44:28;;;;;;;;;20.25;16.25;;;;;;;;5021042;28;8914;-85
2022/05/07 09:46:56;;;;;;;;;19.50;19.25;;;;;;;;5022603;28;8860;-77
2022/05/07 09:49:27;;;;;;;;;15.25;15.25;;;;;;;;5023641;28;8856;-78
2022/05/07 09:51:55;;;;;;;;;16.00;15.00;;;;;;;;5018791;28;8894;-77
2022/05/07 09:59:56;;;;;;;;;15.50;15.00;;;;;;;;5020214;28;8959;-83
2022/05/07 10:02:41;;;;;;;;;14.00;14.00;;;;;;;;5020619;28;8821;-80
2022/05/07 10:05:25;;;;;;;;;21.50;19.50;;;;;;;;5021489;28;8895;-79
2022/05/07 10:08:07;;;;;;;;;15.25;15.25;;;;;;;;5022867;28;9683;-88
2022/05/07 10:10:37;;;;;;;;;23.25;20.50;;;;;;;;5012044;28;8850;-83
2022/05/07 10:13:06;;;;;;;;;11.50;11.50;;;;;;;;5016835;28;8938;-82
2022/05/07 10:15:33;;;;;;;;;25.50;23.25;;;;;;;;5018420;28;8879;-84
2022/05/07 10:18:06;;;;;;;;;20.50;19.25;;;;;;;;5023018;28;8893;-85
2022/05/07 10:20:43;;;;;;;;;17.50;17.50;;;;;;;;5019967;28;8896;-83
2022/05/07 10:23:12;;;;;;;;;19.75;19.75;;;;;;;;5024025;28;8925;-81
2022/05/07 10:25:40;;;;;;;;;20.50;19.00;;;;;;;;5022607;28;9764;-90
2022/05/07 10:28:14;;;;;;;;;17.75;14.00;;;;;;;;5003522;28;8882;-86
2022/05/07 10:30:49;;;;;;;;;16.25;15.25;;;;;;;;5013834;28;9417;-81
2022/05/07 10:33:18;;;;;;;;;19.75;18.50;;;;;;;;5019120;28;8879;-87
2022/05/07 10:35:49;;;;;;;;;14.50;13.00;;;;;;;;5025117;28;8856;-85
2022/05/07 10:38:18;;;;;;;;;20.50;19.00;;;;;;;;5022165;28;8861;-81
2022/05/07 10:40:53;;;;;;;;;17.25;16.50;;;;;;;;5015034;28;8861;-83
2022/05/07 10:43:30;;;;;;;;;22.50;18.50;;;;;;;;5021551;28;9508;-82
2022/05/07 10:46:01;;;;;;;;;20.50;18.50;;;;;;;;5023035;28;8840;-83
2022/05/07 10:48:28;;;;;;;;;22.50;21.25;;;;;;;;4998932;28;8868;-77
2022/05/07 10:50:59;;;;;;;;;18.00;18.00;;;;;;;;5022954;28;8853;-82
2022/05/07 10:53:36;;;;;;;;;15.75;15.75;;;;;;;;5023782;28;8853;-86
2022/05/07 10:56:04;;;;;;;;;17.00;17.00;;;;;;;;5020376;28;8864;-81
2022/05/07 10:58:33;;;;;;;;;14.50;13.00;;;;;;;;5021101;28;8957;-88
2022/05/07 11:01:00;;;;;;;;;17.25;15.75;;;;;;;;5017465;28;8841;-80
2022/05/07 11:03:28;;;;;;;;;16.75;15.75;;;;;;;;5017973;28;8887;-83
2022/05/07 11:06:16;;;;;;;;;17.50;16.50;;;;;;;;5001988;28;8893;-80
2022/05/07 11:08:49;;;;;;;;;12.75;10.75;;;;;;;;5023871;28;8973;-81
2022/05/07 11:11:17;;;;;;;;;19.75;16.75;;;;;;;;5023390;28;8864;-83
2022/05/07 11:13:47;;;;;;;;;18.25;17.00;;;;;;;;5023031;28;8893;-82
2022/05/07 11:16:16;;;;;;;;;16.00;14.50;;;;;;;;5018604;28;8888;-79
2022/05/07 11:18:45;;;;;;;;;20.00;16.25;;;;;;;;5019568;28;8933;-78
2022/05/07 11:21:13;;;;;;;;;14.00;13.00;;;;;;;;5020998;28;8872;-81
2022/05/07 11:23:42;;;;;;;;;18.00;15.60;;;;;;;;5008859;28;8996;-80
2022/05/07 11:26:17;;;;;;;;;13.00;13.00;;;;;;;;5011574;28;8920;-81
2022/05/07 11:28:48;;;;;;;;;15.20;14.00;;;;;;;;5015232;28;9624;-78
2022/05/07 11:31:26;;;;;;;;;14.80;12.20;;;;;;;;5014235;28;9558;-78
2022/05/07 11:34:04;;;;;;;;;15.40;15.40;;;;;;;;5008155;28;9329;-76
2022/05/07 11:36:31;;;;;;;;;14.80;14.80;;;;;;;;4993338;28;8997;-81
2022/05/07 11:39:00;;;;;;;;;15.00;11.60;;;;;;;;4992945;28;9681;-79
2022/05/07 11:41:27;;;;;;;;;14.80;14.00;;;;;;;;5020634;28;8866;-80
2022/05/07 11:46:51;;;;;;;;;14.60;13.60;;;;;;;;5014672;28;8879;-80
2022/05/07 11:49:33;;;;;;;;;15.20;14.60;;;;;;;;5016684;28;9516;-86
2022/05/07 11:52:09;;;;;;;;;14.60;14.60;;;;;;;;5019347;28;8861;-85
2022/05/07 11:54:37;;;;;;;;;16.00;16.00;;;;;;;;5019778;28;8926;-86
2022/05/07 11:57:05;;;;;;;;;14.60;13.40;;;;;;;;4992431;28;8886;-87
2022/05/07 11:59:43;;;;;;;;;15.60;15.60;;;;;;;;5017110;28;8896;-85
2022/05/07 12:02:10;;;;;;;;;12.80;12.80;;;;;;;;5014066;28;8829;-85
2022/05/07 12:04:37;;;;;;;;;15.60;11.20;;;;;;;;5019849;28;8979;-84
2022/05/07 12:07:05;;;;;;;;;12.20;10.40;;;;;;;;5001931;28;8888;-88
2022/05/07 12:09:33;;;;;;;;;9.20;9.20;;;;;;;;5021112;28;8889;-85
2022/05/07 12:12:01;;;;;;;;;15.60;12.40;;;;;;;;5004154;28;8892;-89
2022/05/07 12:14:28;;;;;;;;;8.60;8.60;;;;;;;;5024259;28;8967;-91
2022/05/07 12:19:41;;;;;;;;;10.60;10.60;;;;;;;;5020247;28;8955;-90
2022/05/07 12:30:23;;;;;;;;;11.60;11.60;;;;;;;;5016450;28;8807;-89
2022/05/07 12:32:54;;;;;;;;;13.80;11.80;;;;;;;;5015123;28;8873;-90
2022/05/07 12:35:21;;;;;;;;;12.40;11.20;;;;;;;;5018657;28;8869;-88
2022/05/07 12:37:48;;;;;;;;;9.80;9.80;;;;;;;;5010353;28;9281;-87
2022/05/07 12:40:16;;;;;;;;;12.00;8.40;;;;;;;;5012217;28;8876;-88
2022/05/07 12:42:43;;;;;;;;;7.60;7.60;;;;;;;;4997279;28;8883;-88
2022/05/07 12:45:12;;;;;;;;;9.40;8.00;;;;;;;;5019810;28;8891;-85
2022/05/07 12:47:40;;;;;;;;;7.20;7.20;;;;;;;;5016067;28;8877;-88
2022/05/07 12:50:10;;;;;;;;;7.60;6.00;;;;;;;;5021704;28;8864;-80
2022/05/07 12:52:37;;;;;;;;;6.00;6.00;;;;;;;;5009199;28;9028;-88
2022/05/07 12:55:06;;;;;;;;;4.00;4.00;;;;;;;;5013926;28;9370;-89
2022/05/07 12:57:33;;;;;;;;;4.00;4.00;;;;;;;;5017806;28;8968;-89
2022/05/07 13:00:00;;;;;;;;;6.20;5.40;;;;;;;;4997908;28;8870;-87
2022/05/07 13:02:27;;;;;;;;;3.00;3.00;;;;;;;;5032138;28;8848;-85
2022/05/07 13:04:55;;;;;;;;;3.00;1.20;;;;;;;;5034850;28;8872;-88
2022/05/07 13:07:24;;;;;;;;;3.40;3.40;;;;;;;;5022420;28;8848;-86
2022/05/07 13:09:51;;;;;;;;;4.20;4.00;;;;;;;;5031106;28;8855;-84
2022/05/07 13:12:19;;;;;;;;;3.80;3.80;;;;;;;;5019203;28;9025;-86
2022/05/07 13:14:47;;;;;;;;;7.40;4.40;;;;;;;;5018669;28;9002;-82
2022/05/07 13:17:15;;;;;;;;;4.80;4.80;;;;;;;;5017677;28;8865;-83
2022/05/07 13:19:43;;;;;;;;;3.00;3.00;;;;;;;;5015678;28;8869;-85
2022/05/07 13:22:10;;;;;;;;;3.00;3.00;;;;;;;;5020101;28;8863;-84
2022/05/07 13:24:38;;;;;;;;;1.00;1.00;;;;;;;;5015682;28;8923;-76
2022/05/07 13:27:07;;;;;;;;;3.80;3.80;;;;;;;;5013253;28;8895;-82
2022/05/07 13:29:34;;;;;;;;;2.20;2.00;;;;;;;;5016294;28;8869;-82
2022/05/07 13:32:02;;;;;;;;;1.20;1.20;;;;;;;;5016276;28;8831;-82
2022/05/07 13:34:32;;;;;;;;;4.00;4.00;;;;;;;;5016695;28;9661;-83
2022/05/07 13:36:59;;;;;;;;;2.20;1.20;;;;;;;;5012922;28;9027;-82
2022/05/07 13:39:27;;;;;;;;;1.40;1.40;;;;;;;;5017253;28;8883;-79
2022/05/07 13:41:56;;;;;;;;;1.00;1.00;;;;;;;;5014220;28;8932;-82
2022/05/07 13:44:23;;;;;;;;;1.60;1.60;;;;;;;;5012861;28;8843;-81
2022/05/07 13:46:50;;;;;;;;;2.00;2.00;;;;;;;;4997965;28;8895;-76
2022/05/07 13:49:17;;;;;;;;;1.00;1.00;;;;;;;;5017432;28;8841;-76
2022/05/07 13:51:45;;;;;;;;;2.40;2.20;;;;;;;;5018399;28;8873;-85
2022/05/07 13:54:12;;;;;;;;;1.20;1.00;;;;;;;;5024500;28;8872;-89
2022/05/07 13:56:40;;;;;;;;;1.00;1.00;;;;;;;;5024477;28;8982;-86
2022/05/07 13:59:08;;;;;;;;;2.00;2.00;;;;;;;;5024497;28;8896;-87
2022/05/07 14:01:36;;;;;;;;;2.20;2.00;;;;;;;;5025252;28;8854;-91
2022/05/07 14:04:03;;;;;;;;;2.80;2.80;;;;;;;;5023260;28;8900;-91
2022/05/07 14:06:30;;;;;;;;;1.00;1.00;;;;;;;;5022096;28;8867;-85
2022/05/07 14:08:58;;;;;;;;;1.80;1.80;;;;;;;;5023749;28;8878;-82
2022/05/07 14:11:26;;;;;;;;;1.20;1.20;;;;;;;;5013865;28;8864;-85
2022/05/07 14:13:54;;;;;;;;;1.80;1.80;;;;;;;;5011053;28;8963;-89
2022/05/07 14:16:22;;;;;;;;;1.40;1.40;;;;;;;;4999024;28;9004;-84
2022/05/07 14:18:50;;;;;;;;;2.00;2.00;;;;;;;;5022407;28;8876;-89
2022/05/07 14:21:17;;;;;;;;;1.40;1.40;;;;;;;;5017328;28;8872;-83
2022/05/07 14:23:44;;;;;;;;;1.00;1.00;;;;;;;;5031954;28;8879;-85
2022/05/07 14:26:12;;;;;;;;;2.00;2.00;;;;;;;;5042010;28;8881;-87
2022/05/07 14:28:39;;;;;;;;;1.00;1.00;;;;;;;;5051921;28;9718;-89
2022/05/07 14:31:06;;;;;;;;;0.40;0.00;;;;;;;;5027292;28;8871;-88
2022/05/07 14:33:35;;;;;;;;;2.80;0.80;;;;;;;;5033520;28;8922;-88
2022/05/07 14:36:03;;;;;;;;;0.20;0.20;;;;;;;;5031559;28;8845;-91
2022/05/07 14:38:30;;;;;;;;;1.00;1.00;;;;;;;;5037012;28;9048;-86
2022/05/07 14:40:57;;;;;;;;;1.80;1.80;;;;;;;;5031563;28;8889;-92
2022/05/07 14:43:24;;;;;;;;;1.00;1.00;;;;;;;;5022608;28;8924;-91
2022/05/07 14:45:52;;;;;;;;;1.20;1.20;;;;;;;;5038699;28;8864;-86
2022/05/07 14:48:20;;;;;;;;;2.60;0.80;;;;;;;;5031696;28;8981;-78
2022/05/07 14:50:50;;;;;;;;;1.00;1.00;;;;;;;;5028507;28;8864;-79
2022/05/07 14:53:17;;;;;;;;;1.00;1.00;;;;;;;;5025522;28;8881;-85
2022/05/07 14:55:44;;;;;;;;;0.00;0.00;;;;;;;;5020615;28;8910;-83
2022/05/07 14:58:14;;;;;;;;;1.00;1.00;;;;;;;;5014681;28;8871;-82
2022/05/07 15:00:41;;;;;;;;;1.00;1.00;;;;;;;;5014330;28;8832;-82
2022/05/07 15:03:09;;;;;;;;;1.80;1.00;;;;;;;;5014634;28;8858;-82
2022/05/07 15:05:36;;;;;;;;;2.00;2.00;;;;;;;;5018450;28;8872;-82
2022/05/07 15:10:48;;;;;;;;;0.80;0.20;;;;;;;;5017770;28;8940;-86
2022/05/07 15:13:16;;;;;;;;;1.00;1.00;;;;;;;;5022182;28;8876;-84
2022/05/07 15:15:43;;;;;;;;;2.40;2.00;;;;;;;;5012721;28;8962;-85
2022/05/07 15:18:11;;;;;;;;;2.40;2.40;;;;;;;;5015206;28;8922;-81
2022/05/07 15:20:38;;;;;;;;;3.60;3.60;;;;;;;;5023548;28;9479;-82
2022/05/07 15:23:07;;;;;;;;;2.00;2.00;;;;;;;;5021427;28;9084;-83
2022/05/07 15:25:35;;;;;;;;;1.60;1.60;;;;;;;;5024320;28;8915;-81
2022/05/07 15:28:02;;;;;;;;;4.40;3.00;;;;;;;;5018693;28;8868;-84